createdAt,value
2019-04-30T00:00:06.229Z,929.05
2019-04-30T00:01:07.437Z,929.04
2019-04-30T00:02:05.683Z,929.06
2019-04-30T00:03:06.658Z,929.03
2019-04-30T00:04:05.786Z,929.07
2019-04-30T00:05:05.493Z,929.00
2019-04-30T00:06:07.214Z,929.08
2019-04-30T00:07:05.670Z,929.01
2019-04-30T00:08:05.832Z,929.02
2019-04-30T00:09:05.456Z,929.02
2019-04-30T00:10:06.102Z,929.02
2019-04-30T00:11:05.397Z,929.05
2019-04-30T00:12:05.638Z,929.04
2019-04-30T00:13:06.090Z,929.03
2019-04-30T00:14:05.685Z,929.03
2019-04-30T00:15:06.190Z,929.08
2019-04-30T00:16:05.443Z,929.06
2019-04-30T00:17:06.328Z,929.10
2019-04-30T00:18:05.569Z,929.09
2019-04-30T00:19:06.191Z,929.08
2019-04-30T00:20:05.543Z,929.10
2019-04-30T00:21:05.662Z,929.10
2019-04-30T00:22:05.782Z,929.13
2019-04-30T00:23:05.675Z,929.13
2019-04-30T00:24:10.109Z,929.17
2019-04-30T00:25:05.731Z,929.15
2019-04-30T00:26:10.371Z,929.15
2019-04-30T00:27:05.849Z,929.17
2019-04-30T00:28:08.698Z,929.16
2019-04-30T00:29:05.946Z,929.15
2019-04-30T00:30:08.952Z,929.15
2019-04-30T00:31:06.026Z,929.12
2019-04-30T00:32:07.876Z,929.13
2019-04-30T00:33:06.093Z,929.13
2019-04-30T00:34:06.150Z,929.15
2019-04-30T00:35:07.287Z,929.16
2019-04-30T00:36:06.259Z,929.13
2019-04-30T00:37:07.344Z,929.15
2019-04-30T00:38:06.344Z,929.11
2019-04-30T00:39:08.879Z,929.13
2019-04-30T00:40:07.649Z,929.12
2019-04-30T00:41:10.051Z,929.15
2019-04-30T00:42:06.547Z,929.08
2019-04-30T00:43:08.977Z,929.13
2019-04-30T00:44:06.596Z,929.13
2019-04-30T00:45:09.518Z,929.15
2019-04-30T00:46:06.704Z,929.14
2019-04-30T00:47:08.241Z,929.14
2019-04-30T00:48:06.785Z,929.13
2019-04-30T00:49:11.276Z,929.14
2019-04-30T00:50:06.867Z,929.20
2019-04-30T00:51:14.092Z,929.19
2019-04-30T00:52:06.950Z,929.17
2019-04-30T00:53:12.292Z,929.15
2019-04-30T00:54:07.049Z,929.17
2019-04-30T00:55:09.026Z,929.17
2019-04-30T00:56:07.136Z,929.19
2019-04-30T00:57:07.630Z,929.17
2019-04-30T00:58:07.223Z,929.18
2019-04-30T00:59:10.404Z,929.22
2019-04-30T01:00:07.316Z,929.22
2019-04-30T01:01:08.180Z,929.22
2019-04-30T01:02:07.406Z,929.22
2019-04-30T01:03:09.394Z,929.27
2019-04-30T01:04:07.479Z,929.25
2019-04-30T01:05:09.084Z,929.26
2019-04-30T01:06:07.580Z,929.22
2019-04-30T01:07:08.683Z,929.21
2019-04-30T01:08:07.674Z,929.19
2019-04-30T01:09:08.582Z,929.19
2019-04-30T01:10:07.743Z,929.21
2019-04-30T01:11:09.578Z,929.17
2019-04-30T01:12:07.846Z,929.16
2019-04-30T01:13:11.817Z,929.18
2019-04-30T01:14:09.746Z,929.16
2019-04-30T01:15:11.144Z,929.13
2019-04-30T01:16:09.588Z,929.10
2019-04-30T01:17:11.924Z,929.09
2019-04-30T01:18:09.313Z,929.10
2019-04-30T01:19:10.082Z,929.10
2019-04-30T01:20:09.411Z,929.10
2019-04-30T01:21:11.280Z,929.08
2019-04-30T01:22:09.057Z,929.09
2019-04-30T01:23:11.285Z,929.11
2019-04-30T01:24:09.001Z,929.11
2019-04-30T01:25:13.316Z,929.12
2019-04-30T01:26:08.793Z,929.15
2019-04-30T01:27:10.684Z,929.14
2019-04-30T01:28:10.749Z,929.11
2019-04-30T01:29:10.277Z,929.15
2019-04-30T01:30:08.812Z,929.08
2019-04-30T01:31:09.045Z,929.14
2019-04-30T01:32:10.411Z,929.14
2019-04-30T01:33:09.146Z,929.14
2019-04-30T01:34:12.378Z,929.16
2019-04-30T01:35:08.973Z,929.17
2019-04-30T01:36:13.244Z,929.16
2019-04-30T01:37:08.972Z,929.19
2019-04-30T01:38:12.471Z,929.16
2019-04-30T01:39:09.463Z,929.16
2019-04-30T01:40:13.538Z,929.17
2019-04-30T01:41:09.537Z,929.16
2019-04-30T01:42:11.382Z,929.15
2019-04-30T01:43:09.217Z,929.17
2019-04-30T01:44:11.909Z,929.22
2019-04-30T01:45:09.289Z,929.19
2019-04-30T01:46:13.700Z,929.21
2019-04-30T01:47:09.392Z,929.23
2019-04-30T01:48:12.561Z,929.18
2019-04-30T01:49:09.464Z,929.17
2019-04-30T01:50:09.504Z,929.18
2019-04-30T01:51:13.355Z,929.17
2019-04-30T01:52:09.642Z,929.14
2019-04-30T01:53:13.135Z,929.11
2019-04-30T01:54:13.682Z,929.10
2019-04-30T01:55:09.725Z,929.08
2019-04-30T01:56:09.768Z,929.08
2019-04-30T01:57:10.890Z,929.11
2019-04-30T01:58:09.919Z,929.06
2019-04-30T01:59:09.905Z,929.10
2019-04-30T02:00:09.953Z,929.10
2019-04-30T02:01:10.006Z,929.13
2019-04-30T02:02:10.039Z,929.08
2019-04-30T02:03:11.268Z,929.09
2019-04-30T02:04:10.173Z,929.10
2019-04-30T02:05:10.180Z,929.10
2019-04-30T02:06:11.590Z,929.06
2019-04-30T02:07:10.265Z,929.11
2019-04-30T02:08:10.345Z,929.07
2019-04-30T02:09:10.367Z,929.08
2019-04-30T02:10:10.388Z,929.12
2019-04-30T02:11:10.428Z,929.10
2019-04-30T02:12:10.482Z,929.12
2019-04-30T02:13:10.514Z,929.12
2019-04-30T02:14:10.585Z,929.16
2019-04-30T02:15:10.620Z,929.19
2019-04-30T02:16:10.661Z,929.19
2019-04-30T02:17:10.708Z,929.19
2019-04-30T02:18:10.758Z,929.15
2019-04-30T02:19:10.774Z,929.15
2019-04-30T02:20:10.879Z,929.16
2019-04-30T02:21:11.419Z,929.16
2019-04-30T02:22:10.931Z,929.17
2019-04-30T02:23:10.984Z,929.15
2019-04-30T02:24:11.247Z,929.15
2019-04-30T02:25:11.071Z,929.15
2019-04-30T02:26:11.090Z,929.18
2019-04-30T02:27:11.148Z,929.18
2019-04-30T02:28:11.186Z,929.18
2019-04-30T02:29:11.286Z,929.16
2019-04-30T02:30:11.545Z,929.19
2019-04-30T02:31:11.307Z,929.17
2019-04-30T02:32:11.351Z,929.16
2019-04-30T02:33:11.461Z,929.16
2019-04-30T02:34:11.461Z,929.17
2019-04-30T02:35:11.501Z,929.20
2019-04-30T02:36:11.545Z,929.17
2019-04-30T02:37:11.572Z,929.18
2019-04-30T02:38:11.615Z,929.14
2019-04-30T02:39:11.716Z,929.15
2019-04-30T02:40:11.712Z,929.15
2019-04-30T02:41:11.758Z,929.10
2019-04-30T02:42:13.103Z,929.17
2019-04-30T02:43:11.854Z,929.12
2019-04-30T02:44:11.900Z,929.16
2019-04-30T02:45:11.939Z,929.16
2019-04-30T02:46:11.971Z,929.16
2019-04-30T02:47:12.015Z,929.12
2019-04-30T02:48:12.075Z,929.11
2019-04-30T02:49:12.132Z,929.12
2019-04-30T02:50:18.310Z,929.14
2019-04-30T02:51:12.240Z,929.13
2019-04-30T02:52:12.253Z,929.13
2019-04-30T02:53:12.281Z,929.12
2019-04-30T02:54:12.369Z,929.10
2019-04-30T02:55:12.362Z,929.14
2019-04-30T02:56:12.434Z,929.12
2019-04-30T02:57:12.454Z,929.13
2019-04-30T02:58:12.522Z,929.14
2019-04-30T02:59:12.544Z,929.13
2019-04-30T03:00:12.590Z,929.14
2019-04-30T03:01:12.628Z,929.12
2019-04-30T03:02:12.681Z,929.16
2019-04-30T03:03:12.708Z,929.18
2019-04-30T03:04:12.806Z,929.15
2019-04-30T03:05:13.489Z,929.16
2019-04-30T03:06:12.872Z,929.15
2019-04-30T03:07:12.914Z,929.15
2019-04-30T03:08:12.958Z,929.11
2019-04-30T03:09:12.971Z,929.08
2019-04-30T03:10:13.035Z,929.11
2019-04-30T03:11:13.077Z,929.11
2019-04-30T03:12:13.113Z,929.10
2019-04-30T03:13:13.171Z,929.11
2019-04-30T03:14:13.222Z,929.11
2019-04-30T03:15:13.257Z,929.12
2019-04-30T03:16:13.287Z,929.10
2019-04-30T03:17:13.354Z,929.11
2019-04-30T03:18:13.366Z,929.09
2019-04-30T03:19:13.515Z,929.07
2019-04-30T03:20:27.776Z,929.06
2019-04-30T03:21:13.536Z,929.01
2019-04-30T03:22:13.574Z,929.01
2019-04-30T03:23:13.587Z,929.00
2019-04-30T03:24:13.656Z,928.99
2019-04-30T03:25:13.695Z,928.95
2019-04-30T03:26:13.727Z,928.99
2019-04-30T03:27:13.770Z,929.00
2019-04-30T03:28:13.824Z,929.02
2019-04-30T03:29:13.863Z,929.01
2019-04-30T03:30:13.913Z,929.03
2019-04-30T03:31:13.964Z,928.98
2019-04-30T03:32:14.505Z,929.00
2019-04-30T03:33:14.036Z,929.02
2019-04-30T03:34:24.365Z,929.04
2019-04-30T03:35:14.141Z,928.98
2019-04-30T03:36:14.182Z,928.95
2019-04-30T03:37:14.196Z,928.98
2019-04-30T03:38:14.262Z,928.94
2019-04-30T03:39:14.317Z,929.00
2019-04-30T03:40:14.355Z,928.99
2019-04-30T03:41:14.409Z,928.98
2019-04-30T03:42:14.460Z,928.98
2019-04-30T03:43:14.465Z,928.97
2019-04-30T03:44:21.463Z,928.91
2019-04-30T03:45:14.584Z,928.97
2019-04-30T03:46:14.595Z,928.98
2019-04-30T03:47:14.667Z,929.00
2019-04-30T03:48:14.707Z,928.98
2019-04-30T03:49:14.742Z,928.98
2019-04-30T03:50:14.799Z,928.99
2019-04-30T03:51:14.842Z,928.97
2019-04-30T03:52:14.890Z,928.96
2019-04-30T03:53:14.951Z,928.93
2019-04-30T03:54:14.971Z,928.98
2019-04-30T03:55:14.999Z,928.99
2019-04-30T03:56:15.047Z,928.96
2019-04-30T03:57:15.100Z,928.98
2019-04-30T03:58:15.155Z,928.96
2019-04-30T03:59:15.184Z,928.92
2019-04-30T04:00:15.214Z,928.94
2019-04-30T04:01:15.348Z,928.90
2019-04-30T04:02:15.367Z,928.88
2019-04-30T04:03:15.446Z,928.94
2019-04-30T04:04:15.598Z,928.92
2019-04-30T04:05:15.475Z,928.87
2019-04-30T04:06:15.481Z,928.85
2019-04-30T04:07:15.601Z,928.84
2019-04-30T04:08:15.650Z,928.85
2019-04-30T04:09:15.667Z,928.82
2019-04-30T04:10:15.803Z,928.84
2019-04-30T04:11:15.774Z,928.85
2019-04-30T04:12:15.750Z,928.84
2019-04-30T04:13:15.798Z,928.82
2019-04-30T04:14:15.831Z,928.82
2019-04-30T04:15:15.875Z,928.81
2019-04-30T04:16:15.969Z,928.79
2019-04-30T04:17:15.995Z,928.83
2019-04-30T04:18:16.066Z,928.78
2019-04-30T04:19:16.108Z,928.76
2019-04-30T04:20:16.141Z,928.77
2019-04-30T04:21:16.895Z,928.79
2019-04-30T04:22:16.222Z,928.77
2019-04-30T04:23:16.276Z,928.74
2019-04-30T04:24:16.344Z,928.74
2019-04-30T04:25:16.369Z,928.75
2019-04-30T04:26:16.372Z,928.74
2019-04-30T04:27:16.420Z,928.78
2019-04-30T04:28:16.513Z,928.78
2019-04-30T04:29:19.358Z,928.78
2019-04-30T04:30:16.592Z,928.75
2019-04-30T04:31:19.088Z,928.74
2019-04-30T04:32:16.680Z,928.76
2019-04-30T04:33:16.723Z,928.80
2019-04-30T04:34:19.452Z,928.77
2019-04-30T04:35:19.488Z,928.79
2019-04-30T04:36:16.892Z,928.85
2019-04-30T04:37:19.156Z,928.83
2019-04-30T04:38:16.939Z,928.78
2019-04-30T04:39:19.892Z,928.76
2019-04-30T04:40:17.045Z,928.79
2019-04-30T04:41:19.578Z,928.77
2019-04-30T04:42:19.355Z,928.75
2019-04-30T04:43:17.152Z,928.78
2019-04-30T04:44:19.691Z,928.80
2019-04-30T04:45:19.875Z,928.82
2019-04-30T04:46:17.306Z,928.86
2019-04-30T04:47:19.808Z,928.84
2019-04-30T04:48:19.778Z,928.81
2019-04-30T04:49:19.980Z,928.78
2019-04-30T04:50:19.875Z,928.80
2019-04-30T04:51:31.288Z,928.79
2019-04-30T04:52:21.038Z,928.82
2019-04-30T04:53:19.491Z,928.79
2019-04-30T04:54:19.955Z,928.73
2019-04-30T04:55:21.890Z,928.77
2019-04-30T04:56:19.125Z,928.74
2019-04-30T04:57:21.857Z,928.75
2019-04-30T04:58:21.580Z,928.68
2019-04-30T04:59:19.950Z,928.70
2019-04-30T05:00:19.427Z,928.71
2019-04-30T05:01:20.264Z,928.67
2019-04-30T05:02:19.545Z,928.69
2019-04-30T05:03:20.001Z,928.64
2019-04-30T05:04:19.925Z,928.64
2019-04-30T05:05:19.453Z,928.62
2019-04-30T05:06:22.090Z,928.62
2019-04-30T05:07:19.638Z,928.62
2019-04-30T05:08:18.599Z,928.67
2019-04-30T05:09:19.452Z,928.62
2019-04-30T05:10:19.214Z,928.68
2019-04-30T05:11:19.243Z,928.71
2019-04-30T05:12:18.608Z,928.70
2019-04-30T05:13:19.196Z,928.74
2019-04-30T05:14:19.042Z,928.76
2019-04-30T05:15:19.475Z,928.75
2019-04-30T05:16:19.055Z,928.79
2019-04-30T05:17:19.543Z,928.77
2019-04-30T05:18:19.180Z,928.73
2019-04-30T05:19:18.826Z,928.72
2019-04-30T05:20:19.482Z,928.69
2019-04-30T05:21:18.971Z,928.67
2019-04-30T05:22:19.109Z,928.72
2019-04-30T05:23:19.536Z,928.70
2019-04-30T05:24:19.083Z,928.72
2019-04-30T05:25:18.938Z,928.68
2019-04-30T05:26:19.248Z,928.67
2019-04-30T05:27:19.819Z,928.65
2019-04-30T05:28:19.118Z,928.65
2019-04-30T05:29:19.167Z,928.64
2019-04-30T05:30:19.877Z,928.67
2019-04-30T05:31:21.147Z,928.64
2019-04-30T05:32:19.722Z,928.64
2019-04-30T05:33:19.289Z,928.65
2019-04-30T05:34:19.340Z,928.66
2019-04-30T05:35:19.379Z,928.65
2019-04-30T05:36:19.438Z,928.66
2019-04-30T05:37:22.313Z,928.64
2019-04-30T05:38:19.500Z,928.62
2019-04-30T05:39:19.572Z,928.62
2019-04-30T05:40:19.627Z,928.59
2019-04-30T05:41:19.654Z,928.64
2019-04-30T05:42:19.703Z,928.62
2019-04-30T05:43:19.731Z,928.58
2019-04-30T05:44:19.756Z,928.54
2019-04-30T05:45:19.826Z,928.53
2019-04-30T05:46:19.862Z,928.53
2019-04-30T05:47:19.898Z,928.54
2019-04-30T05:48:19.964Z,928.55
2019-04-30T05:49:20.483Z,928.55
2019-04-30T05:50:20.164Z,928.60
2019-04-30T05:51:21.313Z,928.55
2019-04-30T05:52:20.153Z,928.57
2019-04-30T05:53:20.178Z,928.61
2019-04-30T05:54:20.234Z,928.59
2019-04-30T05:55:20.282Z,928.59
2019-04-30T05:56:20.296Z,928.57
2019-04-30T05:57:20.356Z,928.57
2019-04-30T05:58:20.381Z,928.56
2019-04-30T05:59:20.710Z,928.56
2019-04-30T06:00:20.503Z,928.57
2019-04-30T06:01:20.534Z,928.57
2019-04-30T06:02:20.554Z,928.50
2019-04-30T06:03:28.108Z,928.55
2019-04-30T06:04:20.661Z,928.57
2019-04-30T06:05:20.707Z,928.56
2019-04-30T06:06:20.749Z,928.58
2019-04-30T06:07:20.794Z,928.59
2019-04-30T06:08:20.846Z,928.56
2019-04-30T06:09:31.086Z,928.57
2019-04-30T06:10:20.916Z,928.60
2019-04-30T06:11:20.970Z,928.54
2019-04-30T06:12:21.050Z,928.54
2019-04-30T06:13:21.051Z,928.54
2019-04-30T06:14:21.088Z,928.54
2019-04-30T06:15:21.170Z,928.53
2019-04-30T06:16:21.184Z,928.55
2019-04-30T06:17:21.213Z,928.54
2019-04-30T06:18:21.283Z,928.57
2019-04-30T06:19:21.313Z,928.51
2019-04-30T06:20:21.346Z,928.51
2019-04-30T06:21:21.704Z,928.53
2019-04-30T06:22:21.436Z,928.54
2019-04-30T06:23:21.474Z,928.46
2019-04-30T06:24:21.531Z,928.51
2019-04-30T06:25:31.098Z,928.47
2019-04-30T06:26:21.625Z,928.49
2019-04-30T06:27:21.654Z,928.46
2019-04-30T06:28:21.693Z,928.48
2019-04-30T06:29:21.783Z,928.46
2019-04-30T06:30:21.793Z,928.43
2019-04-30T06:31:31.932Z,928.48
2019-04-30T06:32:21.887Z,928.45
2019-04-30T06:33:21.911Z,928.46
2019-04-30T06:34:21.982Z,928.42
2019-04-30T06:35:22.045Z,928.43
2019-04-30T06:36:22.046Z,928.46
2019-04-30T06:37:22.099Z,928.47
2019-04-30T06:38:22.146Z,928.44
2019-04-30T06:39:22.198Z,928.45
2019-04-30T06:40:22.269Z,928.45
2019-04-30T06:41:22.275Z,928.42
2019-04-30T06:42:22.308Z,928.49
2019-04-30T06:43:22.383Z,928.41
2019-04-30T06:44:34.538Z,928.42
2019-04-30T06:45:22.456Z,928.45
2019-04-30T06:46:22.500Z,928.43
2019-04-30T06:47:32.542Z,928.41
2019-04-30T06:48:22.598Z,928.39
2019-04-30T06:49:22.647Z,928.46
2019-04-30T06:50:22.692Z,928.36
2019-04-30T06:51:22.717Z,928.45
2019-04-30T06:52:23.609Z,928.43
2019-04-30T06:53:22.805Z,928.41
2019-04-30T06:54:22.857Z,928.40
2019-04-30T06:55:22.889Z,928.40
2019-04-30T06:56:22.943Z,928.39
2019-04-30T06:57:22.995Z,928.38
2019-04-30T06:58:23.037Z,928.39
2019-04-30T06:59:23.075Z,928.37
2019-04-30T07:00:32.904Z,928.38
2019-04-30T07:01:23.173Z,928.37
2019-04-30T07:02:23.212Z,928.40
2019-04-30T07:03:23.241Z,928.42
2019-04-30T07:04:23.283Z,928.41
2019-04-30T07:05:23.374Z,928.39
2019-04-30T07:06:29.688Z,928.40
2019-04-30T07:07:30.784Z,928.40
2019-04-30T07:08:35.552Z,928.40
2019-04-30T07:09:26.831Z,928.37
2019-04-30T07:10:23.553Z,928.34
2019-04-30T07:11:23.602Z,928.38
2019-04-30T07:12:27.791Z,928.34
2019-04-30T07:13:23.690Z,928.32
2019-04-30T07:14:23.735Z,928.34
2019-04-30T07:15:23.788Z,928.31
2019-04-30T07:16:23.815Z,928.30
2019-04-30T07:17:23.902Z,928.27
2019-04-30T07:18:23.923Z,928.31
2019-04-30T07:19:34.567Z,928.25
2019-04-30T07:20:24.002Z,928.24
2019-04-30T07:21:24.046Z,928.25
2019-04-30T07:22:39.446Z,928.26
2019-04-30T07:23:24.134Z,928.26
2019-04-30T07:24:24.220Z,928.28
2019-04-30T07:25:24.231Z,928.31
2019-04-30T07:26:24.804Z,928.27
2019-04-30T07:27:24.429Z,928.28
2019-04-30T07:28:42.706Z,928.33
2019-04-30T07:29:24.394Z,928.33
2019-04-30T07:30:24.432Z,928.31
2019-04-30T07:31:24.496Z,928.33
2019-04-30T07:32:24.523Z,928.33
2019-04-30T07:33:24.567Z,928.34
2019-04-30T07:34:24.657Z,928.33
2019-04-30T07:35:24.647Z,928.37
2019-04-30T07:36:42.507Z,928.35
2019-04-30T07:37:24.904Z,928.34
2019-04-30T07:38:24.789Z,928.35
2019-04-30T07:39:29.317Z,928.33
2019-04-30T07:40:24.866Z,928.33
2019-04-30T07:41:24.925Z,928.33
2019-04-30T07:42:24.949Z,928.30
2019-04-30T07:43:25.000Z,928.32
2019-04-30T07:44:34.100Z,928.31
2019-04-30T07:45:25.740Z,928.33
2019-04-30T07:46:25.140Z,928.32
2019-04-30T07:47:25.197Z,928.28
2019-04-30T07:48:26.564Z,928.33
2019-04-30T07:49:25.279Z,928.36
2019-04-30T07:50:25.705Z,928.34
2019-04-30T07:51:26.139Z,928.33
2019-04-30T07:52:26.106Z,928.34
2019-04-30T07:53:25.460Z,928.35
2019-04-30T07:54:25.487Z,928.36
2019-04-30T07:55:25.573Z,928.39
2019-04-30T07:56:29.254Z,928.33
2019-04-30T07:57:25.603Z,928.34
2019-04-30T07:58:25.660Z,928.30
2019-04-30T07:59:25.717Z,928.29
2019-04-30T08:00:25.822Z,928.33
2019-04-30T08:01:25.789Z,928.34
2019-04-30T08:02:25.830Z,928.31
2019-04-30T08:03:26.245Z,928.31
2019-04-30T08:04:25.917Z,928.34
2019-04-30T08:05:25.981Z,928.31
2019-04-30T08:06:26.079Z,928.27
2019-04-30T08:07:26.118Z,928.29
2019-04-30T08:08:26.272Z,928.29
2019-04-30T08:09:26.126Z,928.26
2019-04-30T08:10:26.200Z,928.25
2019-04-30T08:11:26.628Z,928.28
2019-04-30T08:12:31.859Z,928.33
2019-04-30T08:13:28.861Z,928.32
2019-04-30T08:14:26.411Z,928.36
2019-04-30T08:15:26.396Z,928.33
2019-04-30T08:16:28.686Z,928.37
2019-04-30T08:17:26.499Z,928.36
2019-04-30T08:18:26.539Z,928.42
2019-04-30T08:19:28.613Z,928.37
2019-04-30T08:20:26.603Z,928.39
2019-04-30T08:21:28.744Z,928.34
2019-04-30T08:22:26.721Z,928.33
2019-04-30T08:23:34.783Z,928.36
2019-04-30T08:24:26.811Z,928.37
2019-04-30T08:25:28.888Z,928.45
2019-04-30T08:26:28.713Z,928.48
2019-04-30T08:27:26.923Z,928.47
2019-04-30T08:28:30.183Z,928.52
2019-04-30T08:29:27.013Z,928.54
2019-04-30T08:30:29.498Z,928.59
2019-04-30T08:31:29.080Z,928.58
2019-04-30T08:32:28.964Z,928.56
2019-04-30T08:33:29.215Z,928.61
2019-04-30T08:34:29.124Z,928.62
2019-04-30T08:35:29.497Z,928.61
2019-04-30T08:36:27.312Z,928.55
2019-04-30T08:37:28.850Z,928.61
2019-04-30T08:38:27.379Z,928.61
2019-04-30T08:39:29.506Z,928.60
2019-04-30T08:40:29.621Z,928.57
2019-04-30T08:41:29.238Z,928.63
2019-04-30T08:42:31.728Z,928.64
2019-04-30T08:43:29.194Z,928.69
2019-04-30T08:44:29.499Z,928.68
2019-04-30T08:45:31.069Z,928.66
2019-04-30T08:46:28.683Z,928.67
2019-04-30T08:47:29.124Z,928.68
2019-04-30T08:48:43.754Z,928.76
2019-04-30T08:49:29.777Z,928.69
2019-04-30T08:50:29.691Z,928.72
2019-04-30T08:51:28.933Z,928.74
2019-04-30T08:52:28.003Z,928.75
2019-04-30T08:53:32.953Z,928.74
2019-04-30T08:54:29.493Z,928.78
2019-04-30T08:55:30.328Z,928.79
2019-04-30T08:56:29.613Z,928.80
2019-04-30T08:57:29.426Z,928.86
2019-04-30T08:58:29.199Z,928.85
2019-04-30T08:59:29.451Z,928.82
2019-04-30T09:00:29.760Z,928.89
2019-04-30T09:01:29.414Z,928.85
2019-04-30T09:02:28.968Z,928.88
2019-04-30T09:03:29.629Z,928.88
2019-04-30T09:04:29.167Z,928.89
2019-04-30T09:05:30.444Z,928.89
2019-04-30T09:06:29.339Z,928.91
2019-04-30T09:07:29.732Z,928.91
2019-04-30T09:08:29.441Z,928.92
2019-04-30T09:09:29.570Z,928.95
2019-04-30T09:10:29.387Z,928.93
2019-04-30T09:11:35.523Z,928.92
2019-04-30T09:12:29.961Z,928.93
2019-04-30T09:13:28.925Z,928.98
2019-04-30T09:14:29.769Z,928.97
2019-04-30T09:15:29.186Z,929.00
2019-04-30T09:16:29.583Z,929.01
2019-04-30T09:17:29.684Z,928.99
2019-04-30T09:18:29.319Z,929.06
2019-04-30T09:19:29.744Z,929.02
2019-04-30T09:20:29.274Z,929.03
2019-04-30T09:21:30.017Z,929.02
2019-04-30T09:22:29.411Z,929.04
2019-04-30T09:23:42.991Z,929.07
2019-04-30T09:24:31.085Z,929.08
2019-04-30T09:25:29.431Z,929.09
2019-04-30T09:26:29.479Z,929.10
2019-04-30T09:27:29.762Z,929.12
2019-04-30T09:28:29.575Z,929.13
2019-04-30T09:29:29.622Z,929.15
2019-04-30T09:30:30.016Z,929.15
2019-04-30T09:31:29.871Z,929.15
2019-04-30T09:32:29.743Z,929.12
2019-04-30T09:33:29.818Z,929.10
2019-04-30T09:34:29.860Z,929.15
2019-04-30T09:35:32.121Z,929.13
2019-04-30T09:36:29.937Z,929.09
2019-04-30T09:37:30.583Z,929.15
2019-04-30T09:38:30.032Z,929.10
2019-04-30T09:39:30.055Z,929.12
2019-04-30T09:40:32.237Z,929.18
2019-04-30T09:41:30.120Z,929.16
2019-04-30T09:42:30.164Z,929.18
2019-04-30T09:43:30.228Z,929.21
2019-04-30T09:44:30.881Z,929.18
2019-04-30T09:45:30.287Z,929.22
2019-04-30T09:46:30.345Z,929.19
2019-04-30T09:47:30.370Z,929.23
2019-04-30T09:48:30.727Z,929.25
2019-04-30T09:49:30.518Z,929.25
2019-04-30T09:50:30.633Z,929.25
2019-04-30T09:51:31.508Z,929.22
2019-04-30T09:52:31.286Z,929.26
2019-04-30T09:53:31.053Z,929.28
2019-04-30T09:54:31.211Z,929.26
2019-04-30T09:55:30.726Z,929.29
2019-04-30T09:56:30.779Z,929.31
2019-04-30T09:57:30.832Z,929.35
2019-04-30T09:58:30.858Z,929.33
2019-04-30T09:59:30.898Z,929.38
2019-04-30T10:00:30.951Z,929.35
2019-04-30T10:01:32.757Z,929.35
2019-04-30T10:02:31.029Z,929.41
2019-04-30T10:03:32.192Z,929.41
2019-04-30T10:04:31.541Z,929.42
2019-04-30T10:05:31.585Z,929.43
2019-04-30T10:06:39.728Z,929.46
2019-04-30T10:07:31.236Z,929.46
2019-04-30T10:08:31.754Z,929.50
2019-04-30T10:09:31.330Z,929.49
2019-04-30T10:10:31.398Z,929.49
2019-04-30T10:11:31.427Z,929.57
2019-04-30T10:12:31.482Z,929.58
2019-04-30T10:13:31.523Z,929.60
2019-04-30T10:14:31.557Z,929.57
2019-04-30T10:15:31.616Z,929.59
2019-04-30T10:16:31.630Z,929.59
2019-04-30T10:17:31.697Z,929.60
2019-04-30T10:18:31.749Z,929.61
2019-04-30T10:19:31.787Z,929.65
2019-04-30T10:20:31.854Z,929.66
2019-04-30T10:21:31.880Z,929.67
2019-04-30T10:22:31.916Z,929.72
2019-04-30T10:23:31.964Z,929.72
2019-04-30T10:24:32.041Z,929.69
2019-04-30T10:25:32.088Z,929.76
2019-04-30T10:26:32.103Z,929.79
2019-04-30T10:27:32.151Z,929.84
2019-04-30T10:28:32.218Z,929.83
2019-04-30T10:29:32.250Z,929.82
2019-04-30T10:30:32.296Z,929.78
2019-04-30T10:31:32.343Z,929.77
2019-04-30T10:32:32.396Z,929.81
2019-04-30T10:33:32.430Z,929.82
2019-04-30T10:34:32.524Z,929.83
2019-04-30T10:35:32.547Z,929.85
2019-04-30T10:36:32.606Z,929.87
2019-04-30T10:37:32.630Z,929.85
2019-04-30T10:38:32.683Z,929.88
2019-04-30T10:39:32.761Z,929.89
2019-04-30T10:40:32.793Z,929.91
2019-04-30T10:41:32.828Z,929.90
2019-04-30T10:42:34.761Z,929.93
2019-04-30T10:43:32.932Z,929.94
2019-04-30T10:44:32.988Z,929.95
2019-04-30T10:45:33.014Z,929.99
2019-04-30T10:46:33.104Z,929.95
2019-04-30T10:47:33.188Z,929.98
2019-04-30T10:48:33.189Z,930.00
2019-04-30T10:49:33.227Z,930.02
2019-04-30T10:50:33.271Z,930.04
2019-04-30T10:51:33.324Z,930.06
2019-04-30T10:52:33.385Z,930.05
2019-04-30T10:53:33.448Z,930.09
2019-04-30T10:54:33.494Z,930.09
2019-04-30T10:55:33.544Z,930.11
2019-04-30T10:56:33.598Z,930.10
2019-04-30T10:57:33.632Z,930.07
2019-04-30T10:58:33.677Z,930.10
2019-04-30T10:59:33.742Z,930.05
2019-04-30T11:00:33.787Z,930.11
2019-04-30T11:01:33.843Z,930.14
2019-04-30T11:02:33.891Z,930.10
2019-04-30T11:03:33.962Z,930.05
2019-04-30T11:04:33.966Z,930.07
2019-04-30T11:05:34.043Z,930.04
2019-04-30T11:06:34.093Z,930.05
2019-04-30T11:07:34.139Z,930.05
2019-04-30T11:08:34.227Z,930.09
2019-04-30T11:09:34.252Z,930.09
2019-04-30T11:10:34.335Z,930.08
2019-04-30T11:11:34.340Z,930.17
2019-04-30T11:12:34.383Z,930.17
2019-04-30T11:13:34.451Z,930.15
2019-04-30T11:14:34.496Z,930.15
2019-04-30T11:15:34.552Z,930.17
2019-04-30T11:16:34.601Z,930.12
2019-04-30T11:17:34.858Z,930.14
2019-04-30T11:18:34.901Z,930.17
2019-04-30T11:19:35.011Z,930.14
2019-04-30T11:20:34.989Z,930.16
2019-04-30T11:21:34.933Z,930.24
2019-04-30T11:22:35.059Z,930.20
2019-04-30T11:23:35.135Z,930.23
2019-04-30T11:24:38.021Z,930.22
2019-04-30T11:25:35.508Z,930.26
2019-04-30T11:26:35.526Z,930.20
2019-04-30T11:27:35.913Z,930.15
2019-04-30T11:28:35.489Z,930.15
2019-04-30T11:29:35.472Z,930.20
2019-04-30T11:30:35.423Z,930.14
2019-04-30T11:31:35.525Z,930.18
2019-04-30T11:32:35.520Z,930.21
2019-04-30T11:33:35.760Z,930.26
2019-04-30T11:34:35.491Z,930.25
2019-04-30T11:35:35.562Z,930.20
2019-04-30T11:36:35.610Z,930.26
2019-04-30T11:37:35.673Z,930.29
2019-04-30T11:38:35.742Z,930.25
2019-04-30T11:39:35.803Z,930.25
2019-04-30T11:40:37.938Z,930.29
2019-04-30T11:41:35.858Z,930.30
2019-04-30T11:42:35.912Z,930.29
2019-04-30T11:43:35.988Z,930.26
2019-04-30T11:44:36.034Z,930.28
2019-04-30T11:45:36.120Z,930.30
2019-04-30T11:46:36.167Z,930.29
2019-04-30T11:47:36.226Z,930.27
2019-04-30T11:48:36.247Z,930.31
2019-04-30T11:49:36.278Z,930.33
2019-04-30T11:50:36.328Z,930.30
2019-04-30T11:51:36.377Z,930.30
2019-04-30T11:52:36.443Z,930.36
2019-04-30T11:53:36.514Z,930.38
2019-04-30T11:54:48.511Z,930.35
2019-04-30T11:55:36.574Z,930.41
2019-04-30T11:56:38.343Z,930.37
2019-04-30T11:57:36.706Z,930.38
2019-04-30T11:58:38.598Z,930.38
2019-04-30T11:59:36.796Z,930.39
2019-04-30T12:00:36.872Z,930.35
2019-04-30T12:01:36.918Z,930.37
2019-04-30T12:02:37.004Z,930.40
2019-04-30T12:03:37.025Z,930.38
2019-04-30T12:04:37.112Z,930.40
2019-04-30T12:05:38.857Z,930.41
2019-04-30T12:06:37.196Z,930.38
2019-04-30T12:07:37.213Z,930.39
2019-04-30T12:08:39.136Z,930.42
2019-04-30T12:09:38.583Z,930.47
2019-04-30T12:10:39.124Z,930.45
2019-04-30T12:11:37.483Z,930.46
2019-04-30T12:12:38.816Z,930.49
2019-04-30T12:13:37.537Z,930.47
2019-04-30T12:14:39.466Z,930.50
2019-04-30T12:15:37.655Z,930.52
2019-04-30T12:16:39.438Z,930.48
2019-04-30T12:17:37.748Z,930.52
2019-04-30T12:18:37.823Z,930.53
2019-04-30T12:19:38.821Z,930.58
2019-04-30T12:20:37.922Z,930.57
2019-04-30T12:21:38.027Z,930.62
2019-04-30T12:22:39.716Z,930.69
2019-04-30T12:23:38.081Z,930.65
2019-04-30T12:24:38.828Z,930.71
2019-04-30T12:25:38.827Z,930.71
2019-04-30T12:26:38.951Z,930.66
2019-04-30T12:27:38.749Z,930.63
2019-04-30T12:28:38.393Z,930.63